American Falls, ID

2:20 AM MST on December 10, 2016 (GMT -0700)
Pocatello Regional | | Change Station

Elev 4478 ft 42.92 °N, 112.57 °W | Updated 27 minutes ago

Rain
Rain
36 °F
Feels Like 28 °F
N
13
Wind Variable Wind from South

Today
High -- | Low -- °F
--% Chance of Precip.
Yesterday
High -- | Low -- °F
Precip. -- in
Pressure 30.01 in
Visibility 10.0 miles
Clouds Overcast 2200 ft
Windchill 28 °F
Dew Point 33 °F
Humidity 89%
Rainfall 0.03 in
Snow Depth Not available.
7:51 AM 4:57 PM
Waxing Gibbous, 82% visible
METAR KPIH 100853Z AUTO 19011KT 10SM -RA OVC022 02/01 A2996 RMK AO2 SLP161 P0002 60003 T00220006 56012
Pressure 30.01 in
Visibility 10.0 miles
Clouds Overcast 2200 ft
Windchill 28 °F
Dew Point 33 °F
Humidity 89%
Rainfall 0.03 in
Snow Depth Not available.
7:51 AM 4:57 PM
Waxing Gibbous, 82% visible
METAR KPIH 100853Z AUTO 19011KT 10SM -RA OVC022 02/01 A2996 RMK AO2 SLP161 P0002 60003 T00220006 56012

10-Day Weather Forecast

Almanac

Astronomy

Dec. 10, 2016 Rise Set
Actual Time
Civil Twilight
Nautical Twilight
Astronomical Twilight
Moon
Length of Visible Light
Length of Day
Tomorrow will be .
, % of the Moon is Illuminated

Today's Extremes

State Highs State Lows

Community

WunderPhotos

Upload Photos

1,956,538 photos uploaded!

WunderBlog® & News

Nearby

Air Quality

  Air Quality AQ Index Pollutant
Not available.

Snow Depth

Station Depth Elevation

Earthquake Activity

City Distance Mag. Time & Date
Minimum magnitude displayed is 2.5.

Coastal Water Temperatures

Place Temperature

Stations

Nearby Weather Stations

Station Location Temp. Windchill Dew Point Humidity Wind Precip. Elev Updated Type
                   

Watches & Warnings

There are currently no watches in effect.